Huvudsida
METAR-TAF:

METAR-TAF

Flygplatser :

Shiraz International Airport

Shiraz, Iran

latitud: 29-32N, longitud: 052-35E, höjd: 1486 m

Aktuellt väderrapport

Denna rapport gjordes för 29 minuter sedan, klockan 08:00 UTC
Vind 14 kt från syd/sydväst
Temperatur 18°C
Fuktighet 26%
Tryck 1023 hPa
Sikt 10 km eller mer
Få moln på en höjd av 4500 ft

METAR: OISS 220800Z 20014KT 9999 FEW045 18/M02 Q1022 A3020

Tid: 11:59 (08:29 UTC)

Väderprognos

Denna rapport gjordes för 2 timmar och 59 minuter sedan, klockan 05:30 UTC
Prognos gäller från 22 kl. 06 UTC till 23 kl. 12 UTC
Vind 8 kt från ost/sydost
Sikt: 8000 m

TAF: OISS 220530Z 2206/2312 11008KT 8000 NSC

Aktuella väderrapporter och prognoser från 4000 flygplatser (METAR- och TAF-rapporter).

De tillgängliga stationerna syns som gula och röda prickar på kartan.

För musen över prickarna för att se namnen på stationerna.

Klicka sedan för att få väderrapporter och prognoser.

För att ändra kartan: Klicka på de gröna knapparna med ett svart kors på för att zooma in; den gröna knappen med ett streck på för att zooma ut; eller på de gröna pilarna för angränsande kartor.


METAR-TAF: